Time;durP1;ratioP1;P1;durP2;ratioP2;P2;SDS_P1;SDS_P2;PMS_P1;PMS_P2;Temp;Humidity;BMP_temperature;BMP_pressure;BME280_temperature;BME280_humidity;BME280_pressure;Samples;Min_cycle;Max_cycle;Signal;HPM_P1;HPM_P2
2022/11/06 00:00:42;;;;;;;;;;;;;;;9.65;53.21;101122.91;4928930;28;126634;-66
2022/11/06 00:03:08;;;;;;;;;;;;;;;9.64;53.53;101118.59;4941043;28;103947;-65
2022/11/06 00:08:30;;;;;;;;;;;;;;;9.62;53.28;101118.00;4940574;28;98562;-65
2022/11/06 00:10:56;;;;;;;;;;;;;;;9.60;53.25;101120.97;4938554;28;97855;-65
2022/11/06 00:13:22;;;;;;;;;;;;;;;9.58;52.93;101121.19;4939555;28;99074;-65
2022/11/06 00:15:48;;;;;;;;;;;;;;;9.57;53.41;101118.75;4937556;28;122417;-65
2022/11/06 00:18:14;;;;;;;;;;;;;;;9.55;53.51;101123.59;4939284;28;128227;-64
2022/11/06 00:20:40;;;;;;;;;;;;;;;9.54;53.43;101120.03;4932590;28;127719;-64
2022/11/06 00:23:06;;;;;;;;;;;;;;;9.53;53.30;101123.00;4939193;28;117823;-65
2022/11/06 00:25:31;;;;;;;;;;;;;;;9.52;53.51;101105.22;4938926;28;128075;-65
2022/11/06 00:27:57;;;;;;;;;;;;;;;9.51;53.53;101111.66;4939174;28;127084;-64
2022/11/06 00:30:24;;;;;;;;;;;;;;;9.49;53.54;101103.81;4953168;28;128543;-64
2022/11/06 00:32:50;;;;;;;;;;;;;;;9.48;53.81;101102.22;4939907;28;116868;-64
2022/11/06 00:35:16;;;;;;;;;;;;;;;9.47;53.18;101110.50;4952999;28;130539;-65
2022/11/06 00:37:41;;;;;;;;;;;;;;;9.46;53.82;101115.06;4942770;28;108397;-64
2022/11/06 00:40:08;;;;;;;;;;;;;;;9.44;53.59;101114.50;4939705;28;126772;-65
2022/11/06 00:42:34;;;;;;;;;;;;;;;9.44;53.33;101116.41;4937719;28;98173;-64
2022/11/06 00:45:00;;;;;;;;;;;;;;;9.43;53.55;101122.81;4940444;28;114642;-65
2022/11/06 00:47:26;;;;;;;;;;;;;;;9.43;53.20;101128.19;4940923;28;126668;-65
2022/11/06 00:49:51;;;;;;;;;;;;;;;9.40;53.66;101112.56;4942048;28;97875;-64
2022/11/06 00:52:17;;;;;;;;;;;;;;;9.40;52.83;101113.38;4934269;28;115903;-65
2022/11/06 00:54:43;;;;;;;;;;;;;;;9.38;53.65;101120.03;4941885;28;107075;-64
2022/11/06 00:57:09;;;;;;;;;;;;;;;9.36;53.04;101114.91;4957049;28;119011;-65
2022/11/06 00:59:35;;;;;;;;;;;;;;;9.36;53.51;101112.22;4942693;28;127443;-65
2022/11/06 01:02:01;;;;;;;;;;;;;;;9.34;53.60;101114.34;4945580;28;97904;-64
2022/11/06 01:04:27;;;;;;;;;;;;;;;9.34;53.36;101114.34;4944514;28;127621;-64
2022/11/06 01:06:55;;;;;;;;;;;;;;;9.33;53.26;101115.41;4937901;28;99467;-65
2022/11/06 01:09:23;;;;;;;;;;;;;;;9.32;53.55;101114.59;4939893;28;98296;-64
2022/11/06 01:11:52;;;;;;;;;;;;;;;9.31;53.56;101109.44;4939961;28;98144;-65
2022/11/06 01:14:18;;;;;;;;;;;;;;;9.29;53.30;101115.06;4944116;28;98250;-64
2022/11/06 01:16:44;;;;;;;;;;;;;;;9.29;53.11;101111.56;4941721;28;98549;-65
2022/11/06 01:19:14;;;;;;;;;;;;;;;9.27;53.76;101117.16;4938737;28;126875;-64
2022/11/06 01:21:41;;;;;;;;;;;;;;;9.26;53.68;101114.72;4943183;28;117488;-65
2022/11/06 01:24:11;;;;;;;;;;;;;;;9.25;53.35;101111.22;4943619;28;98826;-66
2022/11/06 01:26:37;;;;;;;;;;;;;;;9.24;53.30;101106.91;4938094;28;98387;-65
2022/11/06 01:29:04;;;;;;;;;;;;;;;9.23;53.39;101109.84;4937118;28;124487;-64
2022/11/06 01:31:30;;;;;;;;;;;;;;;9.22;53.88;101102.81;4944575;28;117865;-65
2022/11/06 01:33:57;;;;;;;;;;;;;;;9.20;53.29;101103.09;4944368;28;125582;-64
2022/11/06 01:36:23;;;;;;;;;;;;;;;9.20;53.39;101103.09;4941189;28;129845;-65
2022/11/06 01:38:51;;;;;;;;;;;;;;;9.19;53.55;101093.34;4940671;28;98816;-63
2022/11/06 01:41:19;;;;;;;;;;;;;;;9.18;53.53;101096.31;4941384;28;114500;-64
2022/11/06 01:43:56;;;;;;;;;;;;;;;9.18;53.38;101099.00;4938508;28;98082;-64
2022/11/06 01:46:28;;;;;;;;;;;;;;;9.17;53.26;101103.56;4938210;28;118690;-64
2022/11/06 01:49:00;;;;;;;;;;;;;;;9.15;53.09;101097.59;4943311;28;98420;-64
2022/11/06 01:51:27;;;;;;;;;;;;;;;9.14;53.48;101089.78;4940363;28;97673;-64
2022/11/06 01:53:53;;;;;;;;;;;;;;;9.14;53.27;101089.78;4939353;28;98563;-64
2022/11/06 01:56:19;;;;;;;;;;;;;;;9.12;53.49;101084.66;4939684;28;128251;-65
2022/11/06 01:58:45;;;;;;;;;;;;;;;9.11;53.21;101085.69;4938330;28;125439;-65
2022/11/06 02:01:11;;;;;;;;;;;;;;;9.09;53.26;101085.94;4939527;28;98136;-64
2022/11/06 02:03:37;;;;;;;;;;;;;;;9.09;53.24;101083.25;4945714;28;127768;-65
2022/11/06 02:06:03;;;;;;;;;;;;;;;9.08;53.08;101081.63;4941874;28;127804;-65
2022/11/06 02:08:29;;;;;;;;;;;;;;;9.06;53.30;101078.34;4948955;28;125169;-64
2022/11/06 02:10:55;;;;;;;;;;;;;;;9.06;53.49;101081.03;4969657;28;117371;-66
2022/11/06 02:13:45;;;;;;;;;;;;;;;9.05;53.19;101079.41;4939905;28;127536;-65
2022/11/06 02:16:23;;;;;;;;;;;;;;;9.03;52.87;101070.75;4940894;28;97962;-65
2022/11/06 02:19:09;;;;;;;;;;;;;;;9.03;53.29;101065.38;4937776;28;124161;-65
2022/11/06 02:22:08;;;;;;;;;;;;;;;9.02;53.38;101068.31;4951809;28;97764;-64
2022/11/06 02:24:50;;;;;;;;;;;;;;;9.00;53.48;101065.88;4944029;28;98185;-64
2022/11/06 02:27:22;;;;;;;;;;;;;;;8.99;53.09;101066.94;4934467;28;98503;-65
2022/11/06 02:29:56;;;;;;;;;;;;;;;8.97;53.37;101060.19;4923697;28;98904;-65
2022/11/06 02:32:27;;;;;;;;;;;;;;;8.94;52.84;101069.53;4937583;28;117959;-64
2022/11/06 02:34:53;;;;;;;;;;;;;;;8.91;53.55;101070.00;4938716;28;98370;-65
2022/11/06 02:37:25;;;;;;;;;;;;;;;8.88;53.21;101066.97;4940354;28;98208;-64
2022/11/06 02:39:51;;;;;;;;;;;;;;;8.85;52.89;101062.94;4915407;28;120581;-64
2022/11/06 02:42:17;;;;;;;;;;;;;;;8.83;53.38;101067.72;4939972;28;98014;-65
2022/11/06 02:44:43;;;;;;;;;;;;;;;8.81;53.22;101070.66;4918723;28;98592;-64
2022/11/06 02:47:10;;;;;;;;;;;;;;;8.78;53.08;101068.44;4927764;28;128865;-64
2022/11/06 02:49:40;;;;;;;;;;;;;;;8.79;53.40;101069.25;4942902;28;127143;-65
2022/11/06 02:52:09;;;;;;;;;;;;;;;8.76;53.43;101070.56;4936110;28;112228;-65
2022/11/06 02:54:36;;;;;;;;;;;;;;;8.75;53.55;101065.41;4923021;28;127217;-65
2022/11/06 02:57:04;;;;;;;;;;;;;;;8.74;52.98;101063.78;4941543;28;125498;-64
2022/11/06 02:59:42;;;;;;;;;;;;;;;8.72;53.76;101071.25;4937545;28;123930;-64
2022/11/06 03:02:09;;;;;;;;;;;;;;;8.71;53.29;101056.19;4952336;28;97880;-64
2022/11/06 03:04:47;;;;;;;;;;;;;;;8.70;53.05;101062.63;4942101;28;128077;-63
2022/11/06 03:07:27;;;;;;;;;;;;;;;8.68;53.47;101060.16;4924355;28;122478;-64
2022/11/06 03:09:53;;;;;;;;;;;;;;;8.68;53.30;101065.56;4937967;28;98618;-65
2022/11/06 03:12:29;;;;;;;;;;;;;;;8.67;53.21;101066.63;4939657;28;116609;-65
2022/11/06 03:15:25;;;;;;;;;;;;;;;8.67;52.88;101069.31;4939777;28;98370;-65
2022/11/06 03:18:09;;;;;;;;;;;;;;;8.66;53.48;101064.19;4925382;28;123791;-65
2022/11/06 03:21:03;;;;;;;;;;;;;;;8.65;53.04;101060.69;4942991;28;98244;-66
2022/11/06 03:23:43;;;;;;;;;;;;;;;8.65;53.74;101063.38;4933611;28;97930;-64
2022/11/06 03:26:24;;;;;;;;;;;;;;;8.64;53.59;101052.84;4941962;28;98152;-64
2022/11/06 03:29:02;;;;;;;;;;;;;;;8.62;53.34;101053.09;4937531;28;98010;-65
2022/11/06 03:31:33;;;;;;;;;;;;;;;8.62;53.01;101060.34;4938264;28;126824;-64
2022/11/06 03:34:01;;;;;;;;;;;;;;;8.60;53.64;101049.81;4926384;28;105450;-66
2022/11/06 03:36:32;;;;;;;;;;;;;;;8.58;53.06;101054.63;4921965;28;121246;-65
2022/11/06 03:38:59;;;;;;;;;;;;;;;8.57;53.09;101050.31;4938997;28;99853;-65
2022/11/06 03:41:32;;;;;;;;;;;;;;;8.56;53.39;101054.03;4937752;28;122872;-64
2022/11/06 03:43:58;;;;;;;;;;;;;;;8.56;53.03;101051.34;4923981;28;98252;-65
2022/11/06 03:46:24;;;;;;;;;;;;;;;8.55;53.06;101050.53;4939923;28;125879;-65
2022/11/06 03:48:55;;;;;;;;;;;;;;;8.51;53.49;101046.69;4944587;28;99064;-64
2022/11/06 03:51:28;;;;;;;;;;;;;;;8.52;52.93;101044.81;4937426;28;98096;-64
2022/11/06 03:54:23;;;;;;;;;;;;;;;8.51;53.10;101043.19;4945801;28;98151;-63
2022/11/06 03:56:59;;;;;;;;;;;;;;;8.49;53.74;101045.28;4931940;28;98397;-64
2022/11/06 03:59:31;;;;;;;;;;;;;;;8.48;52.90;101044.47;4920996;28;99436;-65
2022/11/06 04:01:57;;;;;;;;;;;;;;;8.46;53.18;101041.22;4928587;28;99012;-65
2022/11/06 04:04:28;;;;;;;;;;;;;;;8.46;53.24;101045.78;4939994;28;118197;-65
2022/11/06 04:07:00;;;;;;;;;;;;;;;8.46;53.10;101045.78;4946576;28;124564;-65
2022/11/06 04:14:58;;;;;;;;;;;;;;;8.43;53.57;101049.75;4938897;28;98134;-65
2022/11/06 04:17:26;;;;;;;;;;;;;;;8.42;53.42;101041.94;4939196;28;128474;-65
2022/11/06 04:20:02;;;;;;;;;;;;;;;8.40;53.17;101042.16;4930597;28;118592;-65
2022/11/06 04:22:50;;;;;;;;;;;;;;;8.39;53.23;101045.09;4943355;28;98315;-64
2022/11/06 04:28:18;;;;;;;;;;;;;;;8.38;53.12;101043.47;4940944;28;98196;-65
2022/11/06 04:30:54;;;;;;;;;;;;;;;8.36;53.12;101041.81;4945579;28;98470;-65
2022/11/06 04:33:46;;;;;;;;;;;;;;;8.34;52.86;101041.25;4956835;28;118369;-64
2022/11/06 04:36:12;;;;;;;;;;;;;;;8.34;53.10;101043.94;4937972;28;114790;-64
2022/11/06 04:39:03;;;;;;;;;;;;;;;8.33;53.06;101042.31;4942783;28;103944;-65
2022/11/06 04:41:40;;;;;;;;;;;;;;;8.32;53.32;101037.97;4943362;28;98440;-64
2022/11/06 04:44:09;;;;;;;;;;;;;;;8.30;52.79;101032.03;4942391;28;127860;-65
2022/11/06 04:46:44;;;;;;;;;;;;;;;8.30;53.39;101031.22;4958138;28;98144;-65
2022/11/06 04:49:10;;;;;;;;;;;;;;;8.29;53.27;101037.63;4942051;28;127531;-65
2022/11/06 04:51:36;;;;;;;;;;;;;;;8.28;53.33;101030.63;4940720;28;127584;-64
2022/11/06 04:54:03;;;;;;;;;;;;;;;8.27;53.24;101029.81;4957296;28;98510;-65
2022/11/06 04:56:30;;;;;;;;;;;;;;;8.26;53.51;101028.19;4935486;28;115363;-65
2022/11/06 04:58:56;;;;;;;;;;;;;;;8.24;53.25;101024.91;4960094;28;98913;-65
2022/11/06 05:01:22;;;;;;;;;;;;;;;8.25;53.23;101023.03;4942302;28;100678;-65
2022/11/06 05:03:48;;;;;;;;;;;;;;;8.24;53.75;101021.41;4945103;28;109704;-65
2022/11/06 05:06:14;;;;;;;;;;;;;;;8.23;53.58;101019.78;4943780;28;105600;-66
2022/11/06 05:08:40;;;;;;;;;;;;;;;8.22;53.06;101012.78;4940977;28;123392;-64
2022/11/06 05:11:06;;;;;;;;;;;;;;;8.21;53.29;101016.50;4953163;28;128096;-64
2022/11/06 05:13:31;;;;;;;;;;;;;;;8.20;52.96;101006.81;4939736;28;98244;-65
2022/11/06 05:15:58;;;;;;;;;;;;;;;8.19;53.40;101005.19;4942117;28;117377;-63
2022/11/06 05:18:24;;;;;;;;;;;;;;;8.18;52.93;100996.34;4942533;28;98226;-64
2022/11/06 05:23:39;;;;;;;;;;;;;;;8.17;53.63;101008.09;4940490;28;98480;-64
2022/11/06 05:26:05;;;;;;;;;;;;;;;8.15;53.75;101009.41;4939300;28;113436;-64
2022/11/06 05:28:31;;;;;;;;;;;;;;;8.15;53.51;101015.59;4939977;28;123915;-64
2022/11/06 05:30:57;;;;;;;;;;;;;;;8.14;53.20;101013.97;4942357;28;114654;-65
2022/11/06 05:33:23;;;;;;;;;;;;;;;8.14;53.29;101005.91;4948183;28;128067;-65
2022/11/06 05:35:49;;;;;;;;;;;;;;;8.12;53.51;101000.78;4941311;28;117061;-64
2022/11/06 05:38:15;;;;;;;;;;;;;;;8.11;52.99;100998.34;4939617;28;123422;-65
2022/11/06 05:40:41;;;;;;;;;;;;;;;8.15;53.63;101004.03;4942730;28;127641;-64
2022/11/06 05:43:07;;;;;;;;;;;;;;;8.22;53.09;101004.72;4958241;28;105321;-64
2022/11/06 05:45:33;;;;;;;;;;;;;;;8.26;53.48;101000.50;4940790;28;98271;-65
2022/11/06 05:47:59;;;;;;;;;;;;;;;8.32;53.78;100991.47;4939233;28;127914;-64
2022/11/06 05:50:25;;;;;;;;;;;;;;;8.35;52.81;100994.50;4940986;28;126156;-65
2022/11/06 05:52:51;;;;;;;;;;;;;;;8.39;52.84;100999.44;4941627;28;128006;-64
2022/11/06 05:55:17;;;;;;;;;;;;;;;8.41;52.87;100998.16;4938114;28;111921;-65
2022/11/06 05:57:43;;;;;;;;;;;;;;;8.45;53.62;100999.31;4943225;28;98294;-65
2022/11/06 06:00:09;;;;;;;;;;;;;;;8.47;52.86;100993.69;4941728;28;112807;-65
2022/11/06 06:02:35;;;;;;;;;;;;;;;8.48;53.68;100996.13;4936797;28;99121;-65
2022/11/06 06:05:02;;;;;;;;;;;;;;;8.50;53.81;100991.34;4944297;28;114288;-64
2022/11/06 06:07:28;;;;;;;;;;;;;;;8.51;53.09;100989.47;4944152;28;98132;-65
2022/11/06 06:09:54;;;;;;;;;;;;;;;8.51;53.10;100994.81;4945193;28;127531;-65
2022/11/06 06:12:22;;;;;;;;;;;;;;;8.53;53.38;101003.47;4943500;28;114627;-65
2022/11/06 06:14:48;;;;;;;;;;;;;;;8.54;53.66;100999.72;4941341;28;97913;-64
2022/11/06 06:17:14;;;;;;;;;;;;;;;8.54;53.72;101005.09;4941428;28;127988;-65
2022/11/06 06:19:40;;;;;;;;;;;;;;;8.54;53.29;101005.91;4941582;28;128272;-65
2022/11/06 06:22:06;;;;;;;;;;;;;;;8.54;53.63;101013.97;4936932;28;126541;-64
2022/11/06 06:24:32;;;;;;;;;;;;;;;8.55;53.26;101009.41;4941650;28;117924;-64
2022/11/06 06:26:58;;;;;;;;;;;;;;;8.55;53.28;101002.16;4942474;28;127518;-65
2022/11/06 06:29:23;;;;;;;;;;;;;;;8.55;53.59;101002.16;4939768;28;111916;-65
2022/11/06 06:31:49;;;;;;;;;;;;;;;8.56;53.28;101003.78;4936060;28;126592;-65
2022/11/06 06:34:15;;;;;;;;;;;;;;;8.56;53.18;101005.66;4941593;28;97946;-64
2022/11/06 06:36:41;;;;;;;;;;;;;;;8.55;53.30;101007.53;4941684;28;127175;-65
2022/11/06 06:39:07;;;;;;;;;;;;;;;8.55;53.43;101007.53;4943171;28;128746;-65
2022/11/06 06:41:33;;;;;;;;;;;;;;;8.56;53.48;101019.09;4938680;28;119416;-65
2022/11/06 06:43:59;;;;;;;;;;;;;;;8.58;53.63;101020.50;4939723;28;98011;-65
2022/11/06 06:46:25;;;;;;;;;;;;;;;8.58;52.88;101017.81;4942973;28;127867;-65
2022/11/06 06:48:51;;;;;;;;;;;;;;;8.59;53.08;101030.19;4940610;28;126317;-64
2022/11/06 06:51:17;;;;;;;;;;;;;;;8.60;53.39;101025.63;4942123;28;98368;-65
2022/11/06 06:53:43;;;;;;;;;;;;;;;8.60;53.11;101031.00;4943551;28;116247;-65
2022/11/06 06:56:09;;;;;;;;;;;;;;;8.62;52.79;101036.16;4937059;28;98171;-65
2022/11/06 06:58:35;;;;;;;;;;;;;;;8.64;53.09;101034.03;4934224;28;112762;-64
2022/11/06 07:01:02;;;;;;;;;;;;;;;8.64;52.74;101040.22;4935410;28;127724;-64
2022/11/06 07:03:28;;;;;;;;;;;;;;;8.66;52.79;101043.50;4937009;28;97733;-64
2022/11/06 07:05:55;;;;;;;;;;;;;;;8.67;53.14;101045.09;4936121;28;99211;-65
2022/11/06 07:08:21;;;;;;;;;;;;;;;8.68;53.03;101040.53;4946133;28;129513;-63
2022/11/06 07:10:47;;;;;;;;;;;;;;;8.70;53.19;101043.81;4934947;28;119878;-64
2022/11/06 07:13:12;;;;;;;;;;;;;;;8.72;53.09;101055.94;4937209;28;116769;-65
2022/11/06 07:15:38;;;;;;;;;;;;;;;8.72;53.24;101047.88;4938548;28;125924;-64
2022/11/06 07:18:05;;;;;;;;;;;;;;;8.77;52.77;101044.50;4936621;28;127468;-65
2022/11/06 07:20:31;;;;;;;;;;;;;;;8.79;53.17;101042.38;4940308;28;99414;-65
2022/11/06 07:22:57;;;;;;;;;;;;;;;8.83;53.08;101051.59;4935158;28;97983;-64
2022/11/06 07:25:24;;;;;;;;;;;;;;;8.86;52.30;101045.72;4938657;28;127525;-64
2022/11/06 07:27:50;;;;;;;;;;;;;;;8.92;53.35;101052.00;4932664;28;99351;-64
2022/11/06 07:30:16;;;;;;;;;;;;;;;8.96;52.31;101043.22;4937672;28;127318;-65
2022/11/06 07:32:42;;;;;;;;;;;;;;;9.02;52.76;101054.88;4935832;28;114086;-64
2022/11/06 07:35:08;;;;;;;;;;;;;;;9.08;52.77;101052.03;4937705;28;98114;-64
2022/11/06 07:37:35;;;;;;;;;;;;;;;9.17;52.69;101051.63;4937830;28;128074;-65
2022/11/06 07:40:01;;;;;;;;;;;;;;;9.23;52.54;101051.47;4938260;28;97926;-65
2022/11/06 07:42:27;;;;;;;;;;;;;;;9.33;52.38;101048.13;4937522;28;97815;-64
2022/11/06 07:44:54;;;;;;;;;;;;;;;9.44;52.15;101043.75;4938917;28;99067;-65
2022/11/06 07:47:21;;;;;;;;;;;;;;;9.54;52.51;101042.00;4934154;28;98831;-64
2022/11/06 07:49:47;;;;;;;;;;;;;;;9.70;52.07;101051.09;4938907;28;98353;-65
2022/11/06 07:52:13;;;;;;;;;;;;;;;9.93;51.73;101038.50;4937998;28;118173;-64
2022/11/06 07:54:38;;;;;;;;;;;;;;;10.27;51.52;101039.25;4930245;28;128786;-64
2022/11/06 07:57:04;;;;;;;;;;;;;;;10.62;50.99;101038.03;4936214;28;126055;-65
2022/11/06 07:59:32;;;;;;;;;;;;;;;11.01;50.74;101030.59;4937397;28;127814;-66
2022/11/06 08:01:58;;;;;;;;;;;;;;;11.48;50.19;101032.59;4949437;28;117241;-65
2022/11/06 08:04:24;;;;;;;;;;;;;;;11.90;49.85;101040.69;4937124;28;128067;-66
2022/11/06 08:06:50;;;;;;;;;;;;;;;12.30;49.33;101025.75;4934929;28;127940;-65
2022/11/06 08:09:15;;;;;;;;;;;;;;;12.72;49.08;101022.84;4939323;28;128520;-65
2022/11/06 08:11:41;;;;;;;;;;;;;;;13.13;48.80;101022.91;4940073;28;116790;-66
2022/11/06 08:14:09;;;;;;;;;;;;;;;13.58;48.56;101028.59;4937847;28;128102;-65
2022/11/06 08:16:35;;;;;;;;;;;;;;;14.03;48.58;101021.41;4919277;28;98169;-65
2022/11/06 08:19:01;;;;;;;;;;;;;;;14.49;48.23;101025.56;4933262;28;126771;-65
2022/11/06 08:21:27;;;;;;;;;;;;;;;15.00;48.02;101018.19;4935945;28;97921;-65
2022/11/06 08:23:53;;;;;;;;;;;;;;;15.49;47.65;101015.31;4938755;28;129059;-66
2022/11/06 08:26:19;;;;;;;;;;;;;;;15.96;47.68;101013.75;4934023;28;126807;-66
2022/11/06 08:28:45;;;;;;;;;;;;;;;16.44;47.44;101010.97;4937160;28;109510;-65
2022/11/06 08:31:11;;;;;;;;;;;;;;;16.92;47.58;101006.19;4936112;28;98038;-66
2022/11/06 08:33:37;;;;;;;;;;;;;;;17.44;47.21;101008.84;4936449;28;120759;-66
2022/11/06 08:36:04;;;;;;;;;;;;;;;17.95;47.19;101005.19;4941435;28;128063;-66
2022/11/06 08:38:30;;;;;;;;;;;;;;;18.43;46.92;101010.19;4953306;28;98223;-66
2022/11/06 08:40:55;;;;;;;;;;;;;;;18.92;46.95;100999.53;4937202;28;98235;-66
2022/11/06 08:43:25;;;;;;;;;;;;;;;19.36;46.80;101001.41;4936639;28;123541;-65
2022/11/06 08:45:51;;;;;;;;;;;;;;;19.78;46.77;100993.75;4942153;28;98204;-65
2022/11/06 08:48:17;;;;;;;;;;;;;;;20.17;46.78;100995.63;4948144;28;117670;-65
2022/11/06 08:50:43;;;;;;;;;;;;;;;20.57;46.70;100998.28;4944128;28;117410;-66
2022/11/06 08:53:09;;;;;;;;;;;;;;;20.93;46.80;101006.16;4944327;28;128355;-65
2022/11/06 08:55:36;;;;;;;;;;;;;;;21.24;46.71;100997.72;4945142;28;114030;-65
2022/11/06 08:58:02;;;;;;;;;;;;;;;21.55;47.00;100997.50;4942245;28;122103;-66
2022/11/06 09:00:28;;;;;;;;;;;;;;;21.90;46.60;100994.59;4943461;28;99007;-65
2022/11/06 09:03:20;;;;;;;;;;;;;;;22.16;46.63;100991.72;4938641;28;125638;-67
2022/11/06 09:05:46;;;;;;;;;;;;;;;22.35;46.79;100994.03;4935985;28;128276;-66
2022/11/06 09:08:12;;;;;;;;;;;;;;;22.57;46.90;100987.41;4942867;28;127814;-65
2022/11/06 09:10:39;;;;;;;;;;;;;;;22.85;46.94;100984.09;4942037;28;98008;-66
2022/11/06 09:13:05;;;;;;;;;;;;;;;23.11;47.14;100984.69;4939912;28;98197;-66
2022/11/06 09:15:31;;;;;;;;;;;;;;;23.35;47.24;100972.13;4942825;28;124903;-66
2022/11/06 09:17:57;;;;;;;;;;;;;;;23.50;47.42;100972.25;4939283;28;127459;-66
2022/11/06 09:20:23;;;;;;;;;;;;;;;23.59;47.60;100976.84;4942156;28;117178;-66
2022/11/06 09:22:49;;;;;;;;;;;;;;;23.65;47.69;100975.44;4939545;28;100503;-65
2022/11/06 09:25:15;;;;;;;;;;;;;;;23.69;48.09;100970.91;4934448;28;99171;-65
2022/11/06 09:27:44;;;;;;;;;;;;;;;23.72;48.21;100971.03;4938467;28;127038;-66
2022/11/06 09:30:11;;;;;;;;;;;;;;;23.76;48.17;100957.38;4939472;28;108238;-65
2022/11/06 09:32:37;;;;;;;;;;;;;;;23.74;48.25;100960.47;4937706;28;118052;-65
2022/11/06 09:35:04;;;;;;;;;;;;;;;23.69;48.66;100957.16;4941259;28;123364;-66
2022/11/06 09:37:30;;;;;;;;;;;;;;;23.53;48.59;100955.03;4943087;28;98003;-65
2022/11/06 09:39:55;;;;;;;;;;;;;;;23.44;48.80;100950.81;4939420;28;116782;-66
2022/11/06 09:42:47;;;;;;;;;;;;;;;23.34;49.14;100954.78;4935255;28;127485;-65
2022/11/06 09:45:21;;;;;;;;;;;;;;;23.22;49.02;100960.28;4936881;28;99038;-65
2022/11/06 09:47:53;;;;;;;;;;;;;;;23.09;49.44;100956.69;4947703;28;97938;-66
2022/11/06 09:50:21;;;;;;;;;;;;;;;23.00;49.61;100956.81;4938518;28;98079;-66
2022/11/06 09:52:55;;;;;;;;;;;;;;;22.90;49.20;100951.69;4954492;28;110389;-66
2022/11/06 09:55:42;;;;;;;;;;;;;;;22.79;49.74;100951.34;4936002;28;110669;-65
2022/11/06 09:58:24;;;;;;;;;;;;;;;22.58;50.07;100941.50;4938150;28;98112;-65
2022/11/06 10:00:51;;;;;;;;;;;;;;;22.35;50.12;100938.31;4935197;28;118616;-66
2022/11/06 10:03:26;;;;;;;;;;;;;;;22.21;49.92;100946.81;4940753;28;106601;-65
2022/11/06 10:05:52;;;;;;;;;;;;;;;22.11;50.20;100928.75;4937463;28;126513;-66
2022/11/06 10:08:26;;;;;;;;;;;;;;;22.00;50.08;100933.03;4939202;28;127537;-66
2022/11/06 10:11:19;;;;;;;;;;;;;;;21.91;50.14;100929.56;4938686;28;98032;-66
2022/11/06 10:14:07;;;;;;;;;;;;;;;21.79;50.42;100927.53;4934524;28;125742;-66
2022/11/06 10:16:39;;;;;;;;;;;;;;;21.69;50.40;100914.19;4951042;28;124883;-64
2022/11/06 10:19:20;;;;;;;;;;;;;;;21.61;50.46;100915.03;4955582;28;99162;-65
2022/11/06 10:21:47;;;;;;;;;;;;;;;21.43;50.45;100911.59;4934715;28;97918;-66
2022/11/06 10:24:21;;;;;;;;;;;;;;;21.36;50.50;100901.13;4936191;28;98500;-64
2022/11/06 10:26:52;;;;;;;;;;;;;;;21.28;50.72;100904.69;4936186;28;128916;-65
2022/11/06 10:29:39;;;;;;;;;;;;;;;21.17;50.49;100896.00;4937412;28;99013;-65
2022/11/06 10:32:26;;;;;;;;;;;;;;;21.07;50.58;100893.63;4937902;28;98092;-66
2022/11/06 10:34:58;;;;;;;;;;;;;;;20.97;50.56;100894.78;4936703;28;99419;-66
2022/11/06 10:37:31;;;;;;;;;;;;;;;20.89;50.68;100883.84;4935286;28;98544;-66
2022/11/06 10:39:57;;;;;;;;;;;;;;;20.81;50.65;100875.31;4938152;28;128302;-66
2022/11/06 10:42:30;;;;;;;;;;;;;;;20.75;50.61;100876.66;4936632;28;117808;-65
2022/11/06 10:45:18;;;;;;;;;;;;;;;20.69;50.56;100883.41;4919778;28;118668;-64
2022/11/06 10:47:56;;;;;;;;;;;;;;;20.62;50.71;100869.41;4935905;28;128368;-66
2022/11/06 10:50:23;;;;;;;;;;;;;;;20.55;50.76;100858.97;4934482;28;125249;-66
2022/11/06 10:52:54;;;;;;;;;;;;;;;20.46;50.88;100868.28;4931918;28;98140;-66
2022/11/06 10:55:38;;;;;;;;;;;;;;;20.36;51.06;100869.44;4937167;28;98983;-65
2022/11/06 10:58:26;;;;;;;;;;;;;;;20.20;51.00;100871.03;4932771;28;98500;-66
2022/11/06 11:00:53;;;;;;;;;;;;;;;20.02;51.19;100864.75;4938636;28;127493;-65
2022/11/06 11:03:30;;;;;;;;;;;;;;;19.85;51.40;100852.69;4935689;28;97949;-65
2022/11/06 11:05:56;;;;;;;;;;;;;;;19.71;51.69;100848.47;4938078;28;98171;-65
2022/11/06 11:08:33;;;;;;;;;;;;;;;19.58;51.80;100839.25;4951933;28;102100;-65
2022/11/06 11:11:11;;;;;;;;;;;;;;;19.42;51.80;100838.91;4937671;28;98237;-65
2022/11/06 11:13:38;;;;;;;;;;;;;;;19.27;51.90;100831.13;4939702;28;98344;-66
2022/11/06 11:16:04;;;;;;;;;;;;;;;19.13;51.99;100831.25;4936789;28;127082;-66
2022/11/06 11:18:33;;;;;;;;;;;;;;;18.99;52.10;100830.56;4930106;28;124360;-66
2022/11/06 11:21:17;;;;;;;;;;;;;;;18.84;52.22;100815.38;4933274;28;98015;-65
2022/11/06 11:24:04;;;;;;;;;;;;;;;18.69;52.19;100815.75;4940457;28;97936;-65
2022/11/06 11:26:32;;;;;;;;;;;;;;;18.52;52.35;100809.09;4932426;28;99137;-64
2022/11/06 11:28:59;;;;;;;;;;;;;;;18.40;52.25;100809.66;4916094;28;98829;-65
2022/11/06 11:31:33;;;;;;;;;;;;;;;18.29;52.45;100804.75;4939070;28;125915;-66
2022/11/06 11:34:13;;;;;;;;;;;;;;;18.17;52.28;100807.25;4933054;28;98515;-66
2022/11/06 11:37:02;;;;;;;;;;;;;;;18.03;52.43;100810.81;4925754;28;98425;-66
2022/11/06 11:39:36;;;;;;;;;;;;;;;17.88;52.47;100803.81;4930917;28;124592;-66
2022/11/06 11:42:23;;;;;;;;;;;;;;;17.76;52.69;100794.53;4951948;28;127383;-65
2022/11/06 11:45:08;;;;;;;;;;;;;;;17.59;52.69;100798.69;4939299;28;97999;-65
2022/11/06 11:47:37;;;;;;;;;;;;;;;17.47;52.72;100792.16;4936979;28;98794;-66
2022/11/06 11:50:21;;;;;;;;;;;;;;;17.35;52.63;100787.25;4933509;28;98684;-65
2022/11/06 11:52:48;;;;;;;;;;;;;;;17.20;52.74;100777.47;4939163;28;98018;-64
2022/11/06 11:55:15;;;;;;;;;;;;;;;17.09;52.79;100784.22;4918292;28;104327;-65
2022/11/06 11:57:43;;;;;;;;;;;;;;;17.00;52.89;100777.88;4931220;28;98545;-64
2022/11/06 12:00:19;;;;;;;;;;;;;;;16.89;52.57;100777.28;4915731;28;111661;-65
2022/11/06 12:02:52;;;;;;;;;;;;;;;16.78;52.99;100773.13;4928175;28;103389;-66
2022/11/06 12:05:27;;;;;;;;;;;;;;;16.68;52.81;100768.66;4937486;28;97916;-65
2022/11/06 12:07:56;;;;;;;;;;;;;;;16.57;52.75;100769.94;4920207;28;122533;-65
2022/11/06 12:10:33;;;;;;;;;;;;;;;16.47;52.78;100759.28;4934979;28;99023;-66
2022/11/06 12:13:00;;;;;;;;;;;;;;;16.34;52.73;100756.19;4929789;28;98384;-66
2022/11/06 12:15:44;;;;;;;;;;;;;;;16.25;52.81;100754.47;4938335;28;114185;-65
2022/11/06 12:18:22;;;;;;;;;;;;;;;16.14;52.90;100759.28;4933939;28;98627;-65
2022/11/06 12:21:04;;;;;;;;;;;;;;;16.04;52.70;100754.81;4931877;28;112568;-66
2022/11/06 12:23:55;;;;;;;;;;;;;;;15.95;52.84;100756.56;4956205;28;97977;-66
2022/11/06 12:26:28;;;;;;;;;;;;;;;15.85;52.89;100748.59;4942004;28;98040;-64
2022/11/06 12:29:01;;;;;;;;;;;;;;;15.78;52.73;100740.00;4937937;28;100590;-66
2022/11/06 12:31:47;;;;;;;;;;;;;;;15.71;52.96;100734.94;4936740;28;98970;-66
2022/11/06 12:34:37;;;;;;;;;;;;;;;15.64;52.87;100734.47;4939454;28;98099;-65
2022/11/06 12:37:22;;;;;;;;;;;;;;;15.57;52.96;100728.63;4939236;28;118217;-65
2022/11/06 12:40:19;;;;;;;;;;;;;;;15.50;52.80;100722.72;4955007;28;98735;-64
2022/11/06 12:43:23;;;;;;;;;;;;;;;15.43;52.69;100728.53;4936204;28;99097;-65
2022/11/06 12:46:17;;;;;;;;;;;;;;;15.36;52.94;100725.34;4939686;28;98731;-65
2022/11/06 12:49:15;;;;;;;;;;;;;;;15.30;52.73;100721.91;4937212;28;97938;-64
2022/11/06 12:51:52;;;;;;;;;;;;;;;15.23;52.77;100710.59;4941516;28;98919;-65
2022/11/06 12:54:56;;;;;;;;;;;;;;;15.19;52.79;100707.66;4939626;28;98524;-66
2022/11/06 12:57:43;;;;;;;;;;;;;;;15.15;52.91;100703.91;4940110;28;98330;-65
2022/11/06 13:00:10;;;;;;;;;;;;;;;15.11;52.81;100702.88;4938649;28;99189;-65
2022/11/06 13:02:55;;;;;;;;;;;;;;;15.08;52.57;100698.03;4937813;28;106085;-64
2022/11/06 13:05:55;;;;;;;;;;;;;;;15.04;52.65;100699.72;4939341;28;98414;-65
2022/11/06 13:08:32;;;;;;;;;;;;;;;15.02;52.75;100693.78;4923453;28;126108;-64
2022/11/06 13:11:16;;;;;;;;;;;;;;;15.00;52.70;100687.03;4936844;28;98105;-65